sensor_id;sensor_type;location;lat;lon;timestamp;P1;durP1;ratioP1;P2;durP2;ratioP2
65461;SDS011;53236;43.666;18.444;2024-03-08T00:02:13;41.23;;;27.40;;
65461;SDS011;53236;43.666;18.444;2024-03-08T00:04:39;38.67;;;27.03;;
65461;SDS011;53236;43.666;18.444;2024-03-08T00:07:05;40.00;;;26.53;;
65461;SDS011;53236;43.666;18.444;2024-03-08T00:09:32;43.63;;;28.57;;
65461;SDS011;53236;43.666;18.444;2024-03-08T00:11:58;44.83;;;28.47;;
65461;SDS011;53236;43.666;18.444;2024-03-08T00:14:24;47.07;;;31.10;;
65461;SDS011;53236;43.666;18.444;2024-03-08T00:16:50;47.03;;;31.90;;
65461;SDS011;53236;43.666;18.444;2024-03-08T00:19:18;42.27;;;30.27;;
65461;SDS011;53236;43.666;18.444;2024-03-08T00:21:43;52.50;;;36.93;;
65461;SDS011;53236;43.666;18.444;2024-03-08T00:24:10;47.00;;;32.03;;
65461;SDS011;53236;43.666;18.444;2024-03-08T00:26:37;56.23;;;36.43;;
65461;SDS011;53236;43.666;18.444;2024-03-08T00:29:02;50.77;;;32.27;;
65461;SDS011;53236;43.666;18.444;2024-03-08T00:31:28;44.07;;;28.50;;
65461;SDS011;53236;43.666;18.444;2024-03-08T00:33:58;44.17;;;30.00;;
65461;SDS011;53236;43.666;18.444;2024-03-08T00:36:24;49.17;;;29.27;;
65461;SDS011;53236;43.666;18.444;2024-03-08T00:38:50;42.20;;;29.13;;
65461;SDS011;53236;43.666;18.444;2024-03-08T00:41:16;45.60;;;30.37;;
65461;SDS011;53236;43.666;18.444;2024-03-08T00:43:41;49.30;;;32.33;;
65461;SDS011;53236;43.666;18.444;2024-03-08T00:46:07;45.97;;;30.57;;
65461;SDS011;53236;43.666;18.444;2024-03-08T00:48:33;48.03;;;29.83;;
65461;SDS011;53236;43.666;18.444;2024-03-08T00:50:59;46.73;;;32.20;;
65461;SDS011;53236;43.666;18.444;2024-03-08T00:53:27;47.93;;;31.33;;
65461;SDS011;53236;43.666;18.444;2024-03-08T00:55:52;48.93;;;31.77;;
65461;SDS011;53236;43.666;18.444;2024-03-08T00:58:20;48.67;;;30.60;;
65461;SDS011;53236;43.666;18.444;2024-03-08T01:00:46;47.90;;;29.60;;
65461;SDS011;53236;43.666;18.444;2024-03-08T01:03:12;46.40;;;30.83;;
65461;SDS011;53236;43.666;18.444;2024-03-08T01:05:37;44.27;;;29.63;;
65461;SDS011;53236;43.666;18.444;2024-03-08T01:08:03;47.67;;;29.47;;
65461;SDS011;53236;43.666;18.444;2024-03-08T01:10:30;47.17;;;29.70;;
65461;SDS011;53236;43.666;18.444;2024-03-08T01:12:55;48.40;;;31.00;;
65461;SDS011;53236;43.666;18.444;2024-03-08T01:15:22;48.57;;;31.17;;
65461;SDS011;53236;43.666;18.444;2024-03-08T01:17:48;49.47;;;32.37;;
65461;SDS011;53236;43.666;18.444;2024-03-08T01:20:15;45.03;;;29.30;;
65461;SDS011;53236;43.666;18.444;2024-03-08T01:22:41;41.93;;;28.23;;
65461;SDS011;53236;43.666;18.444;2024-03-08T01:25:07;41.17;;;28.33;;
65461;SDS011;53236;43.666;18.444;2024-03-08T01:27:33;46.10;;;30.17;;
65461;SDS011;53236;43.666;18.444;2024-03-08T01:30:00;44.33;;;29.20;;
65461;SDS011;53236;43.666;18.444;2024-03-08T01:32:26;53.43;;;35.30;;
65461;SDS011;53236;43.666;18.444;2024-03-08T01:34:52;49.10;;;33.13;;
65461;SDS011;53236;43.666;18.444;2024-03-08T01:37:18;47.60;;;32.87;;
65461;SDS011;53236;43.666;18.444;2024-03-08T01:39:45;48.13;;;32.50;;
65461;SDS011;53236;43.666;18.444;2024-03-08T01:42:10;46.37;;;30.93;;
65461;SDS011;53236;43.666;18.444;2024-03-08T01:44:42;42.03;;;28.23;;
65461;SDS011;53236;43.666;18.444;2024-03-08T01:47:09;47.23;;;30.43;;
65461;SDS011;53236;43.666;18.444;2024-03-08T01:49:36;43.43;;;29.97;;
65461;SDS011;53236;43.666;18.444;2024-03-08T01:52:03;43.20;;;28.37;;
65461;SDS011;53236;43.666;18.444;2024-03-08T01:54:29;44.03;;;29.07;;
65461;SDS011;53236;43.666;18.444;2024-03-08T01:56:56;45.43;;;29.57;;
65461;SDS011;53236;43.666;18.444;2024-03-08T01:59:24;43.80;;;28.93;;
65461;SDS011;53236;43.666;18.444;2024-03-08T02:01:51;41.13;;;28.07;;
65461;SDS011;53236;43.666;18.444;2024-03-08T02:04:20;48.80;;;31.63;;
65461;SDS011;53236;43.666;18.444;2024-03-08T02:06:46;51.70;;;33.77;;
65461;SDS011;53236;43.666;18.444;2024-03-08T02:09:13;48.97;;;32.23;;
65461;SDS011;53236;43.666;18.444;2024-03-08T02:11:40;50.57;;;32.73;;
65461;SDS011;53236;43.666;18.444;2024-03-08T02:14:06;49.47;;;32.13;;
65461;SDS011;53236;43.666;18.444;2024-03-08T02:16:32;47.77;;;31.20;;
65461;SDS011;53236;43.666;18.444;2024-03-08T02:18:58;53.13;;;33.87;;
65461;SDS011;53236;43.666;18.444;2024-03-08T02:21:24;51.23;;;33.53;;
65461;SDS011;53236;43.666;18.444;2024-03-08T02:23:50;61.07;;;36.90;;
65461;SDS011;53236;43.666;18.444;2024-03-08T02:26:17;54.17;;;35.67;;
65461;SDS011;53236;43.666;18.444;2024-03-08T02:28:44;51.50;;;33.50;;
65461;SDS011;53236;43.666;18.444;2024-03-08T02:31:10;53.30;;;33.43;;
65461;SDS011;53236;43.666;18.444;2024-03-08T02:33:35;60.10;;;38.47;;
65461;SDS011;53236;43.666;18.444;2024-03-08T02:36:01;63.50;;;39.77;;
65461;SDS011;53236;43.666;18.444;2024-03-08T02:38:27;56.57;;;37.07;;
65461;SDS011;53236;43.666;18.444;2024-03-08T02:40:53;56.83;;;33.87;;
65461;SDS011;53236;43.666;18.444;2024-03-08T02:43:20;53.40;;;33.77;;
65461;SDS011;53236;43.666;18.444;2024-03-08T02:45:47;53.03;;;34.13;;
65461;SDS011;53236;43.666;18.444;2024-03-08T02:48:13;53.07;;;32.93;;
65461;SDS011;53236;43.666;18.444;2024-03-08T02:50:41;51.43;;;33.43;;
65461;SDS011;53236;43.666;18.444;2024-03-08T02:53:10;52.80;;;32.70;;
65461;SDS011;53236;43.666;18.444;2024-03-08T02:55:40;49.80;;;31.80;;
65461;SDS011;53236;43.666;18.444;2024-03-08T02:58:06;51.27;;;32.40;;
65461;SDS011;53236;43.666;18.444;2024-03-08T03:00:37;49.27;;;31.13;;
65461;SDS011;53236;43.666;18.444;2024-03-08T03:03:04;46.00;;;30.80;;
65461;SDS011;53236;43.666;18.444;2024-03-08T03:05:31;45.80;;;29.97;;
65461;SDS011;53236;43.666;18.444;2024-03-08T03:07:57;46.97;;;31.40;;
65461;SDS011;53236;43.666;18.444;2024-03-08T03:10:23;47.07;;;30.17;;
65461;SDS011;53236;43.666;18.444;2024-03-08T03:12:49;41.67;;;28.77;;
65461;SDS011;53236;43.666;18.444;2024-03-08T03:15:15;44.77;;;28.67;;
65461;SDS011;53236;43.666;18.444;2024-03-08T03:17:45;46.70;;;28.83;;
65461;SDS011;53236;43.666;18.444;2024-03-08T03:20:12;45.03;;;29.30;;
65461;SDS011;53236;43.666;18.444;2024-03-08T03:22:39;44.33;;;28.30;;
65461;SDS011;53236;43.666;18.444;2024-03-08T03:25:06;43.00;;;27.97;;
65461;SDS011;53236;43.666;18.444;2024-03-08T03:27:36;48.77;;;30.20;;
65461;SDS011;53236;43.666;18.444;2024-03-08T03:30:02;46.87;;;30.20;;
65461;SDS011;53236;43.666;18.444;2024-03-08T03:32:46;48.60;;;28.30;;
65461;SDS011;53236;43.666;18.444;2024-03-08T03:35:18;43.43;;;28.50;;
65461;SDS011;53236;43.666;18.444;2024-03-08T03:37:45;43.83;;;27.77;;
65461;SDS011;53236;43.666;18.444;2024-03-08T03:40:38;48.70;;;29.73;;
65461;SDS011;53236;43.666;18.444;2024-03-08T03:43:07;49.80;;;29.58;;
65461;SDS011;53236;43.666;18.444;2024-03-08T03:45:35;49.37;;;28.90;;
65461;SDS011;53236;43.666;18.444;2024-03-08T03:48:01;51.13;;;32.97;;
65461;SDS011;53236;43.666;18.444;2024-03-08T03:50:28;53.60;;;33.90;;
65461;SDS011;53236;43.666;18.444;2024-03-08T03:52:54;49.20;;;32.07;;
65461;SDS011;53236;43.666;18.444;2024-03-08T03:55:20;51.10;;;31.57;;
65461;SDS011;53236;43.666;18.444;2024-03-08T03:57:47;50.37;;;31.07;;
65461;SDS011;53236;43.666;18.444;2024-03-08T04:00:13;46.63;;;31.03;;
65461;SDS011;53236;43.666;18.444;2024-03-08T04:02:39;50.27;;;32.07;;
65461;SDS011;53236;43.666;18.444;2024-03-08T04:05:06;49.50;;;32.23;;
65461;SDS011;53236;43.666;18.444;2024-03-08T04:07:33;48.07;;;31.20;;
65461;SDS011;53236;43.666;18.444;2024-03-08T04:09:59;47.40;;;30.70;;
65461;SDS011;53236;43.666;18.444;2024-03-08T04:12:26;48.30;;;30.17;;
65461;SDS011;53236;43.666;18.444;2024-03-08T04:14:54;48.97;;;31.30;;
65461;SDS011;53236;43.666;18.444;2024-03-08T04:17:20;47.93;;;30.40;;
65461;SDS011;53236;43.666;18.444;2024-03-08T04:19:46;48.27;;;31.13;;
65461;SDS011;53236;43.666;18.444;2024-03-08T04:22:13;48.07;;;31.17;;
65461;SDS011;53236;43.666;18.444;2024-03-08T04:24:39;47.40;;;31.20;;
65461;SDS011;53236;43.666;18.444;2024-03-08T04:27:06;48.13;;;29.57;;
65461;SDS011;53236;43.666;18.444;2024-03-08T04:29:31;41.73;;;28.03;;
65461;SDS011;53236;43.666;18.444;2024-03-08T04:31:59;46.47;;;29.93;;
65461;SDS011;53236;43.666;18.444;2024-03-08T04:34:28;72.07;;;46.60;;
65461;SDS011;53236;43.666;18.444;2024-03-08T04:36:56;52.40;;;32.87;;
65461;SDS011;53236;43.666;18.444;2024-03-08T04:39:23;55.03;;;37.10;;
65461;SDS011;53236;43.666;18.444;2024-03-08T04:41:49;53.83;;;37.07;;
65461;SDS011;53236;43.666;18.444;2024-03-08T04:44:15;46.87;;;31.93;;
65461;SDS011;53236;43.666;18.444;2024-03-08T04:46:42;48.47;;;32.07;;
65461;SDS011;53236;43.666;18.444;2024-03-08T04:49:09;45.67;;;30.50;;
65461;SDS011;53236;43.666;18.444;2024-03-08T04:51:36;34.03;;;21.80;;
65461;SDS011;53236;43.666;18.444;2024-03-08T04:54:02;32.83;;;21.17;;
65461;SDS011;53236;43.666;18.444;2024-03-08T04:56:29;32.43;;;22.90;;
65461;SDS011;53236;43.666;18.444;2024-03-08T04:58:55;45.33;;;29.63;;
65461;SDS011;53236;43.666;18.444;2024-03-08T05:01:21;35.43;;;22.40;;
65461;SDS011;53236;43.666;18.444;2024-03-08T05:03:47;25.73;;;18.23;;
65461;SDS011;53236;43.666;18.444;2024-03-08T05:06:15;24.50;;;16.10;;
65461;SDS011;53236;43.666;18.444;2024-03-08T05:08:41;25.60;;;16.53;;
65461;SDS011;53236;43.666;18.444;2024-03-08T05:11:07;24.57;;;16.53;;
65461;SDS011;53236;43.666;18.444;2024-03-08T05:13:33;26.50;;;17.00;;
65461;SDS011;53236;43.666;18.444;2024-03-08T05:16:02;30.90;;;17.93;;
65461;SDS011;53236;43.666;18.444;2024-03-08T05:18:28;25.40;;;16.40;;
65461;SDS011;53236;43.666;18.444;2024-03-08T05:20:54;26.60;;;16.93;;
65461;SDS011;53236;43.666;18.444;2024-03-08T05:23:19;23.80;;;16.30;;
65461;SDS011;53236;43.666;18.444;2024-03-08T05:25:47;27.47;;;18.23;;
65461;SDS011;53236;43.666;18.444;2024-03-08T05:28:13;27.60;;;19.40;;
65461;SDS011;53236;43.666;18.444;2024-03-08T05:30:38;28.17;;;19.47;;
65461;SDS011;53236;43.666;18.444;2024-03-08T05:33:04;30.97;;;20.90;;
65461;SDS011;53236;43.666;18.444;2024-03-08T05:35:30;27.07;;;18.93;;
65461;SDS011;53236;43.666;18.444;2024-03-08T05:37:57;30.23;;;19.70;;
65461;SDS011;53236;43.666;18.444;2024-03-08T05:40:23;33.73;;;21.10;;
65461;SDS011;53236;43.666;18.444;2024-03-08T05:42:49;30.10;;;19.87;;
65461;SDS011;53236;43.666;18.444;2024-03-08T05:45:15;37.33;;;25.90;;
65461;SDS011;53236;43.666;18.444;2024-03-08T05:47:41;33.27;;;22.40;;
65461;SDS011;53236;43.666;18.444;2024-03-08T05:50:07;48.50;;;31.13;;
65461;SDS011;53236;43.666;18.444;2024-03-08T05:52:35;57.73;;;39.40;;
65461;SDS011;53236;43.666;18.444;2024-03-08T05:55:03;50.60;;;33.60;;
65461;SDS011;53236;43.666;18.444;2024-03-08T05:57:32;35.00;;;23.80;;
65461;SDS011;53236;43.666;18.444;2024-03-08T05:59:58;31.40;;;22.03;;
65461;SDS011;53236;43.666;18.444;2024-03-08T06:02:24;31.40;;;22.57;;
65461;SDS011;53236;43.666;18.444;2024-03-08T06:04:49;29.93;;;21.00;;
65461;SDS011;53236;43.666;18.444;2024-03-08T06:07:17;32.20;;;22.80;;
65461;SDS011;53236;43.666;18.444;2024-03-08T06:09:43;24.40;;;16.43;;
65461;SDS011;53236;43.666;18.444;2024-03-08T06:12:11;29.23;;;19.70;;
65461;SDS011;53236;43.666;18.444;2024-03-08T06:14:37;26.77;;;18.47;;
65461;SDS011;53236;43.666;18.444;2024-03-08T06:17:03;30.80;;;22.37;;
65461;SDS011;53236;43.666;18.444;2024-03-08T06:19:32;30.43;;;24.83;;
65461;SDS011;53236;43.666;18.444;2024-03-08T06:21:58;25.27;;;16.70;;
65461;SDS011;53236;43.666;18.444;2024-03-08T06:24:25;33.80;;;20.63;;
65461;SDS011;53236;43.666;18.444;2024-03-08T06:26:51;33.93;;;23.00;;
65461;SDS011;53236;43.666;18.444;2024-03-08T06:29:18;28.27;;;19.27;;
65461;SDS011;53236;43.666;18.444;2024-03-08T06:31:44;24.17;;;16.10;;
65461;SDS011;53236;43.666;18.444;2024-03-08T06:34:10;25.13;;;18.03;;
65461;SDS011;53236;43.666;18.444;2024-03-08T06:36:36;22.60;;;15.67;;
65461;SDS011;53236;43.666;18.444;2024-03-08T06:39:03;21.90;;;14.93;;
65461;SDS011;53236;43.666;18.444;2024-03-08T06:41:34;13.30;;;9.33;;
65461;SDS011;53236;43.666;18.444;2024-03-08T06:44:03;13.23;;;9.20;;
65461;SDS011;53236;43.666;18.444;2024-03-08T06:46:29;12.13;;;8.13;;
65461;SDS011;53236;43.666;18.444;2024-03-08T06:48:54;10.75;;;6.93;;
65461;SDS011;53236;43.666;18.444;2024-03-08T06:51:21;9.05;;;6.60;;
65461;SDS011;53236;43.666;18.444;2024-03-08T06:53:47;9.52;;;6.65;;
65461;SDS011;53236;43.666;18.444;2024-03-08T06:56:14;11.25;;;7.85;;
65461;SDS011;53236;43.666;18.444;2024-03-08T06:58:40;10.93;;;7.25;;
65461;SDS011;53236;43.666;18.444;2024-03-08T07:01:07;11.07;;;8.27;;
65461;SDS011;53236;43.666;18.444;2024-03-08T07:03:38;11.68;;;9.15;;
65461;SDS011;53236;43.666;18.444;2024-03-08T07:06:09;14.27;;;9.02;;
65461;SDS011;53236;43.666;18.444;2024-03-08T07:08:35;14.20;;;11.00;;
65461;SDS011;53236;43.666;18.444;2024-03-08T07:11:01;13.93;;;10.03;;
65461;SDS011;53236;43.666;18.444;2024-03-08T07:13:28;13.00;;;10.07;;
65461;SDS011;53236;43.666;18.444;2024-03-08T07:15:54;14.47;;;11.27;;
65461;SDS011;53236;43.666;18.444;2024-03-08T07:18:20;13.03;;;9.00;;
65461;SDS011;53236;43.666;18.444;2024-03-08T07:20:47;13.87;;;9.47;;
65461;SDS011;53236;43.666;18.444;2024-03-08T07:23:14;16.30;;;9.93;;
65461;SDS011;53236;43.666;18.444;2024-03-08T07:26:00;12.60;;;9.07;;
65461;SDS011;53236;43.666;18.444;2024-03-08T07:28:26;14.53;;;9.60;;
65461;SDS011;53236;43.666;18.444;2024-03-08T07:30:52;16.67;;;11.33;;
65461;SDS011;53236;43.666;18.444;2024-03-08T07:33:26;16.93;;;10.53;;
65461;SDS011;53236;43.666;18.444;2024-03-08T07:35:52;16.67;;;11.90;;
65461;SDS011;53236;43.666;18.444;2024-03-08T07:38:18;16.00;;;11.63;;
65461;SDS011;53236;43.666;18.444;2024-03-08T07:40:46;16.20;;;11.60;;
65461;SDS011;53236;43.666;18.444;2024-03-08T07:43:13;17.83;;;11.27;;
65461;SDS011;53236;43.666;18.444;2024-03-08T07:45:39;17.83;;;13.03;;
65461;SDS011;53236;43.666;18.444;2024-03-08T07:48:05;18.07;;;12.40;;
65461;SDS011;53236;43.666;18.444;2024-03-08T07:50:37;17.77;;;12.87;;
65461;SDS011;53236;43.666;18.444;2024-03-08T07:53:04;18.13;;;11.87;;
65461;SDS011;53236;43.666;18.444;2024-03-08T07:55:32;16.37;;;10.27;;
65461;SDS011;53236;43.666;18.444;2024-03-08T07:57:58;12.73;;;8.87;;
65461;SDS011;53236;43.666;18.444;2024-03-08T08:00:24;18.30;;;13.53;;
65461;SDS011;53236;43.666;18.444;2024-03-08T08:02:52;15.50;;;10.70;;
65461;SDS011;53236;43.666;18.444;2024-03-08T08:05:18;13.73;;;10.43;;
65461;SDS011;53236;43.666;18.444;2024-03-08T08:07:44;17.90;;;10.93;;
65461;SDS011;53236;43.666;18.444;2024-03-08T08:10:11;16.23;;;10.73;;
65461;SDS011;53236;43.666;18.444;2024-03-08T08:12:43;12.77;;;8.67;;
65461;SDS011;53236;43.666;18.444;2024-03-08T08:15:09;9.77;;;7.23;;
65461;SDS011;53236;43.666;18.444;2024-03-08T08:17:35;10.40;;;6.47;;
65461;SDS011;53236;43.666;18.444;2024-03-08T08:20:01;8.43;;;5.60;;
65461;SDS011;53236;43.666;18.444;2024-03-08T08:22:30;7.73;;;5.63;;
65461;SDS011;53236;43.666;18.444;2024-03-08T08:24:56;9.80;;;5.60;;
65461;SDS011;53236;43.666;18.444;2024-03-08T08:27:22;10.07;;;6.73;;
65461;SDS011;53236;43.666;18.444;2024-03-08T08:29:47;8.93;;;5.83;;
65461;SDS011;53236;43.666;18.444;2024-03-08T08:32:14;9.23;;;5.60;;
65461;SDS011;53236;43.666;18.444;2024-03-08T08:34:40;10.13;;;5.60;;
65461;SDS011;53236;43.666;18.444;2024-03-08T08:37:07;8.30;;;5.30;;
65461;SDS011;53236;43.666;18.444;2024-03-08T08:39:34;7.80;;;5.70;;
65461;SDS011;53236;43.666;18.444;2024-03-08T08:42:00;6.60;;;4.67;;
65461;SDS011;53236;43.666;18.444;2024-03-08T08:44:28;6.93;;;4.80;;
65461;SDS011;53236;43.666;18.444;2024-03-08T08:46:56;8.27;;;5.43;;
65461;SDS011;53236;43.666;18.444;2024-03-08T08:49:22;7.20;;;5.03;;
65461;SDS011;53236;43.666;18.444;2024-03-08T08:51:52;7.40;;;5.00;;
65461;SDS011;53236;43.666;18.444;2024-03-08T08:54:18;8.17;;;5.37;;
65461;SDS011;53236;43.666;18.444;2024-03-08T08:56:45;5.77;;;4.33;;
65461;SDS011;53236;43.666;18.444;2024-03-08T08:59:12;7.17;;;4.67;;
65461;SDS011;53236;43.666;18.444;2024-03-08T09:01:44;5.00;;;3.43;;
65461;SDS011;53236;43.666;18.444;2024-03-08T09:04:12;5.67;;;3.87;;
65461;SDS011;53236;43.666;18.444;2024-03-08T09:06:38;4.73;;;3.30;;
65461;SDS011;53236;43.666;18.444;2024-03-08T09:09:07;6.13;;;3.87;;
65461;SDS011;53236;43.666;18.444;2024-03-08T09:11:34;5.90;;;3.80;;
65461;SDS011;53236;43.666;18.444;2024-03-08T09:14:00;7.17;;;4.90;;
65461;SDS011;53236;43.666;18.444;2024-03-08T09:16:27;8.23;;;5.60;;
65461;SDS011;53236;43.666;18.444;2024-03-08T09:18:52;7.33;;;4.40;;
65461;SDS011;53236;43.666;18.444;2024-03-08T09:21:18;7.87;;;4.63;;
65461;SDS011;53236;43.666;18.444;2024-03-08T09:23:44;18.73;;;10.50;;
65461;SDS011;53236;43.666;18.444;2024-03-08T09:26:10;16.13;;;7.70;;
65461;SDS011;53236;43.666;18.444;2024-03-08T09:28:38;12.57;;;7.43;;
65461;SDS011;53236;43.666;18.444;2024-03-08T09:31:03;6.67;;;5.10;;
65461;SDS011;53236;43.666;18.444;2024-03-08T09:33:30;10.87;;;6.33;;
65461;SDS011;53236;43.666;18.444;2024-03-08T09:35:56;15.43;;;9.30;;
65461;SDS011;53236;43.666;18.444;2024-03-08T09:38:24;18.67;;;10.97;;
65461;SDS011;53236;43.666;18.444;2024-03-08T09:40:51;7.30;;;5.23;;
65461;SDS011;53236;43.666;18.444;2024-03-08T09:43:18;9.60;;;5.37;;
65461;SDS011;53236;43.666;18.444;2024-03-08T09:45:45;10.27;;;7.10;;
65461;SDS011;53236;43.666;18.444;2024-03-08T09:48:14;6.05;;;4.45;;
65461;SDS011;53236;43.666;18.444;2024-03-08T09:50:44;3.97;;;3.05;;
65461;SDS011;53236;43.666;18.444;2024-03-08T09:53:12;4.93;;;3.72;;
65461;SDS011;53236;43.666;18.444;2024-03-08T09:55:38;3.00;;;2.38;;
65461;SDS011;53236;43.666;18.444;2024-03-08T09:58:13;4.22;;;2.45;;
65461;SDS011;53236;43.666;18.444;2024-03-08T10:00:52;3.90;;;3.15;;
65461;SDS011;53236;43.666;18.444;2024-03-08T10:03:19;3.67;;;2.20;;
65461;SDS011;53236;43.666;18.444;2024-03-08T10:05:45;2.65;;;1.92;;
65461;SDS011;53236;43.666;18.444;2024-03-08T10:08:11;4.72;;;2.28;;
65461;SDS011;53236;43.666;18.444;2024-03-08T10:10:38;3.47;;;2.20;;
65461;SDS011;53236;43.666;18.444;2024-03-08T10:13:07;3.75;;;2.53;;
65461;SDS011;53236;43.666;18.444;2024-03-08T10:15:34;7.75;;;2.55;;
65461;SDS011;53236;43.666;18.444;2024-03-08T10:18:01;10.60;;;3.40;;
65461;SDS011;53236;43.666;18.444;2024-03-08T10:20:28;3.28;;;2.25;;
65461;SDS011;53236;43.666;18.444;2024-03-08T10:22:58;3.45;;;2.55;;
65461;SDS011;53236;43.666;18.444;2024-03-08T10:25:30;2.83;;;2.30;;
65461;SDS011;53236;43.666;18.444;2024-03-08T10:27:56;6.72;;;4.00;;
65461;SDS011;53236;43.666;18.444;2024-03-08T10:30:22;6.37;;;3.17;;
65461;SDS011;53236;43.666;18.444;2024-03-08T10:32:48;4.80;;;3.30;;
65461;SDS011;53236;43.666;18.444;2024-03-08T10:35:15;6.77;;;3.93;;
65461;SDS011;53236;43.666;18.444;2024-03-08T10:37:45;5.33;;;4.00;;
65461;SDS011;53236;43.666;18.444;2024-03-08T10:40:18;3.83;;;2.50;;
65461;SDS011;53236;43.666;18.444;2024-03-08T10:45:19;3.90;;;2.60;;
65461;SDS011;53236;43.666;18.444;2024-03-08T10:48:00;4.30;;;3.00;;
65461;SDS011;53236;43.666;18.444;2024-03-08T10:50:28;5.83;;;3.67;;
65461;SDS011;53236;43.666;18.444;2024-03-08T10:52:55;13.37;;;7.93;;
65461;SDS011;53236;43.666;18.444;2024-03-08T10:55:26;9.13;;;5.20;;
65461;SDS011;53236;43.666;18.444;2024-03-08T10:57:53;9.57;;;6.33;;
65461;SDS011;53236;43.666;18.444;2024-03-08T11:00:19;5.83;;;3.70;;
65461;SDS011;53236;43.666;18.444;2024-03-08T11:02:52;5.53;;;3.67;;
65461;SDS011;53236;43.666;18.444;2024-03-08T11:05:31;6.90;;;3.70;;
65461;SDS011;53236;43.666;18.444;2024-03-08T11:08:19;8.43;;;4.97;;
65461;SDS011;53236;43.666;18.444;2024-03-08T11:10:46;8.50;;;4.90;;
65461;SDS011;53236;43.666;18.444;2024-03-08T11:13:35;7.17;;;4.07;;
65461;SDS011;53236;43.666;18.444;2024-03-08T11:16:02;7.63;;;3.20;;
65461;SDS011;53236;43.666;18.444;2024-03-08T11:18:32;5.63;;;3.73;;
65461;SDS011;53236;43.666;18.444;2024-03-08T11:21:03;6.40;;;3.83;;
65461;SDS011;53236;43.666;18.444;2024-03-08T11:23:31;4.23;;;2.80;;
65461;SDS011;53236;43.666;18.444;2024-03-08T11:25:58;7.03;;;4.23;;
65461;SDS011;53236;43.666;18.444;2024-03-08T11:28:25;8.20;;;4.00;;
65461;SDS011;53236;43.666;18.444;2024-03-08T11:33:27;4.30;;;2.80;;
65461;SDS011;53236;43.666;18.444;2024-03-08T11:36:03;7.07;;;3.53;;
65461;SDS011;53236;43.666;18.444;2024-03-08T11:38:42;5.97;;;3.60;;
65461;SDS011;53236;43.666;18.444;2024-03-08T11:41:09;6.70;;;3.63;;
65461;SDS011;53236;43.666;18.444;2024-03-08T11:43:39;4.70;;;2.80;;
65461;SDS011;53236;43.666;18.444;2024-03-08T11:46:13;4.83;;;2.50;;
65461;SDS011;53236;43.666;18.444;2024-03-08T11:48:40;5.50;;;3.60;;
65461;SDS011;53236;43.666;18.444;2024-03-08T11:51:12;10.57;;;6.63;;
65461;SDS011;53236;43.666;18.444;2024-03-08T11:53:39;7.10;;;5.00;;
65461;SDS011;53236;43.666;18.444;2024-03-08T11:56:09;7.10;;;4.20;;
65461;SDS011;53236;43.666;18.444;2024-03-08T11:58:37;10.53;;;6.43;;
65461;SDS011;53236;43.666;18.444;2024-03-08T12:01:07;4.70;;;2.83;;
65461;SDS011;53236;43.666;18.444;2024-03-08T12:03:42;3.27;;;2.37;;
65461;SDS011;53236;43.666;18.444;2024-03-08T12:06:11;8.27;;;5.77;;
65461;SDS011;53236;43.666;18.444;2024-03-08T12:08:40;5.53;;;3.40;;
65461;SDS011;53236;43.666;18.444;2024-03-08T12:11:05;7.90;;;5.27;;
65461;SDS011;53236;43.666;18.444;2024-03-08T12:13:32;11.67;;;6.73;;
65461;SDS011;53236;43.666;18.444;2024-03-08T12:15:59;5.17;;;3.23;;
65461;SDS011;53236;43.666;18.444;2024-03-08T12:18:34;7.30;;;4.20;;
65461;SDS011;53236;43.666;18.444;2024-03-08T12:23:35;6.70;;;4.80;;
65461;SDS011;53236;43.666;18.444;2024-03-08T12:26:15;7.83;;;5.43;;
65461;SDS011;53236;43.666;18.444;2024-03-08T12:28:42;6.40;;;4.50;;
65461;SDS011;53236;43.666;18.444;2024-03-08T12:31:11;6.70;;;4.90;;
65461;SDS011;53236;43.666;18.444;2024-03-08T12:33:48;10.30;;;6.80;;
65461;SDS011;53236;43.666;18.444;2024-03-08T12:36:14;9.17;;;6.73;;
65461;SDS011;53236;43.666;18.444;2024-03-08T12:38:44;13.27;;;10.50;;
65461;SDS011;53236;43.666;18.444;2024-03-08T12:41:16;8.77;;;6.80;;
65461;SDS011;53236;43.666;18.444;2024-03-08T12:43:43;8.83;;;6.93;;
65461;SDS011;53236;43.666;18.444;2024-03-08T12:46:16;8.47;;;6.50;;
65461;SDS011;53236;43.666;18.444;2024-03-08T12:48:46;5.30;;;4.00;;
65461;SDS011;53236;43.666;18.444;2024-03-08T12:51:15;7.80;;;5.37;;
65461;SDS011;53236;43.666;18.444;2024-03-08T12:53:43;7.13;;;5.27;;
65461;SDS011;53236;43.666;18.444;2024-03-08T12:56:10;5.00;;;3.30;;
65461;SDS011;53236;43.666;18.444;2024-03-08T12:58:37;4.20;;;2.90;;
65461;SDS011;53236;43.666;18.444;2024-03-08T13:01:06;3.97;;;3.37;;
65461;SDS011;53236;43.666;18.444;2024-03-08T13:03:33;6.90;;;5.27;;
65461;SDS011;53236;43.666;18.444;2024-03-08T13:06:05;11.43;;;7.30;;
65461;SDS011;53236;43.666;18.444;2024-03-08T13:08:34;7.57;;;5.00;;
65461;SDS011;53236;43.666;18.444;2024-03-08T13:11:01;11.87;;;7.93;;
65461;SDS011;53236;43.666;18.444;2024-03-08T13:13:28;7.47;;;4.60;;
65461;SDS011;53236;43.666;18.444;2024-03-08T13:15:54;9.57;;;5.90;;
65461;SDS011;53236;43.666;18.444;2024-03-08T13:18:21;22.47;;;13.23;;
65461;SDS011;53236;43.666;18.444;2024-03-08T13:20:48;9.73;;;5.70;;
65461;SDS011;53236;43.666;18.444;2024-03-08T13:23:17;14.33;;;10.00;;
65461;SDS011;53236;43.666;18.444;2024-03-08T13:25:43;9.13;;;5.57;;
65461;SDS011;53236;43.666;18.444;2024-03-08T13:28:09;11.40;;;7.63;;
65461;SDS011;53236;43.666;18.444;2024-03-08T13:30:36;7.43;;;4.90;;
65461;SDS011;53236;43.666;18.444;2024-03-08T13:33:01;7.70;;;4.87;;
65461;SDS011;53236;43.666;18.444;2024-03-08T13:35:29;7.90;;;4.70;;
65461;SDS011;53236;43.666;18.444;2024-03-08T13:37:56;3.57;;;2.30;;
65461;SDS011;53236;43.666;18.444;2024-03-08T13:40:21;5.57;;;2.80;;
65461;SDS011;53236;43.666;18.444;2024-03-08T13:42:47;5.93;;;2.40;;
65461;SDS011;53236;43.666;18.444;2024-03-08T13:45:14;4.00;;;2.70;;
65461;SDS011;53236;43.666;18.444;2024-03-08T13:47:46;5.07;;;2.93;;
65461;SDS011;53236;43.666;18.444;2024-03-08T13:50:12;5.93;;;3.77;;
65461;SDS011;53236;43.666;18.444;2024-03-08T13:52:39;5.50;;;3.70;;
65461;SDS011;53236;43.666;18.444;2024-03-08T13:55:05;6.53;;;2.90;;
65461;SDS011;53236;43.666;18.444;2024-03-08T13:57:31;3.93;;;2.43;;
65461;SDS011;53236;43.666;18.444;2024-03-08T13:59:58;3.97;;;2.40;;
65461;SDS011;53236;43.666;18.444;2024-03-08T14:02:24;6.47;;;2.73;;
65461;SDS011;53236;43.666;18.444;2024-03-08T14:04:54;3.97;;;2.60;;
65461;SDS011;53236;43.666;18.444;2024-03-08T14:07:20;4.47;;;2.77;;
65461;SDS011;53236;43.666;18.444;2024-03-08T14:09:46;8.63;;;4.50;;
65461;SDS011;53236;43.666;18.444;2024-03-08T14:12:12;5.70;;;3.70;;
65461;SDS011;53236;43.666;18.444;2024-03-08T14:14:38;4.23;;;2.70;;
65461;SDS011;53236;43.666;18.444;2024-03-08T14:17:07;7.43;;;3.33;;
65461;SDS011;53236;43.666;18.444;2024-03-08T14:19:35;4.17;;;2.90;;
65461;SDS011;53236;43.666;18.444;2024-03-08T14:22:01;5.03;;;2.87;;
65461;SDS011;53236;43.666;18.444;2024-03-08T14:24:29;5.57;;;3.37;;
65461;SDS011;53236;43.666;18.444;2024-03-08T14:26:56;5.50;;;2.70;;
65461;SDS011;53236;43.666;18.444;2024-03-08T14:29:24;5.00;;;3.30;;